Back to Top

Language: 

My Weather Underground Personal Weather Station Historical Data with Graphs...

Delerius Weather Station Historical Data
Daily Summary for January 22, 2018 Units:  English    Metric   Both
« Previous Day
Next Day »
Daily Weekly Monthly Yearly Custom
  High: Low: Average:
Temperature: 48.6 °F 42.1 °F 44.6 °F
Dew Point: 43.5 °F 37.5 °F 40.6 °F
Humidity: 91 % 75 % 86 %
Wind Speed: 23.0 mph 0.0 mph 7.9 mph
Wind Gust: 33.0 mph - -
Wind:- - West
Pressure: 29.95 in 29.64 in -
Precipitation: 0.01 in    
Historical Graphs
 
 
Tabular Data for January 22, 2018
Time Temperature Dew Point Pressure Wind Wind Speed Wind Gust Humidity Rainfall Rate (Hourly) solar Conditions
00:03 44.8 °F 42.3 °F 29.64 in NW 4.0 mph 6.0 mph 91 % 0.00 in 0 W/m2
00:08 44.6 °F 42.1 °F 29.64 in NW 3.0 mph 7.0 mph 91 % 0.01 in 0 W/m2
00:13 44.8 °F 42.3 °F 29.64 in WNW 2.0 mph 4.0 mph 91 % 0.01 in 0 W/m2
00:18 44.6 °F 42.1 °F 29.64 in West 6.0 mph 9.0 mph 91 % 0.01 in 0 W/m2
00:23 44.8 °F 42.3 °F 29.64 in West 9.0 mph 18.0 mph 91 % 0.01 in 0 W/m2
00:28 44.8 °F 42.3 °F 29.64 in WNW 9.0 mph 12.0 mph 91 % 0.01 in 0 W/m2
00:33 44.8 °F 42.3 °F 29.64 in WNW 5.0 mph 11.0 mph 91 % 0.01 in 0 W/m2
00:38 44.8 °F 42.3 °F 29.64 in WNW 8.0 mph 13.0 mph 91 % 0.01 in 0 W/m2
00:43 44.6 °F 42.1 °F 29.64 in West 6.0 mph 10.0 mph 91 % 0.01 in 0 W/m2
00:48 44.6 °F 41.8 °F 29.65 in WSW 4.0 mph 8.0 mph 90 % 0.01 in 0 W/m2
00:53 44.4 °F 41.7 °F 29.65 in West 1.0 mph 2.0 mph 90 % 0.01 in 0 W/m2
00:58 44.4 °F 41.7 °F 29.65 in Calm   1.0 mph 90 % 0.01 in 0 W/m2
01:03 44.2 °F 41.5 °F 29.65 in Calm   2.0 mph 90 % 0.01 in 0 W/m2
01:08 44.2 °F 41.5 °F 29.65 in West 4.0 mph 8.0 mph 90 % 0.00 in 0 W/m2
01:13 44.1 °F 41.3 °F 29.65 in West 4.0 mph 12.0 mph 90 % 0.00 in 0 W/m2
01:19 44.1 °F 41.0 °F 29.65 in West 4.0 mph 8.0 mph 89 % 0.00 in 0 W/m2
01:24 44.1 °F 41.0 °F 29.65 in West 3.0 mph 6.0 mph 89 % 0.00 in 0 W/m2
01:29 44.1 °F 41.0 °F 29.65 in West 4.0 mph 7.0 mph 89 % 0.00 in 0 W/m2
01:34 43.9 °F 40.8 °F 29.65 in WNW 4.0 mph 7.0 mph 89 % 0.00 in 0 W/m2
01:39 43.9 °F 40.8 °F 29.64 in West 5.0 mph 7.0 mph 89 % 0.00 in 0 W/m2
01:44 43.7 °F 40.4 °F 29.64 in WNW 5.0 mph 8.0 mph 88 % 0.00 in 0 W/m2
01:49 43.7 °F 40.7 °F 29.64 in WNW 3.0 mph 7.0 mph 89 % 0.00 in 0 W/m2
01:54 43.7 °F 40.7 °F 29.64 in WNW 7.0 mph 11.0 mph 89 % 0.00 in 0 W/m2
01:59 43.9 °F 40.8 °F 29.64 in WNW 8.0 mph 13.0 mph 89 % 0.00 in 0 W/m2
02:04 43.9 °F 40.8 °F 29.64 in West 7.0 mph 14.0 mph 89 % 0.00 in 0 W/m2
02:09 43.9 °F 40.8 °F 29.64 in West 5.0 mph 9.0 mph 89 % 0.00 in 0 W/m2
02:14 43.9 °F 40.8 °F 29.64 in WNW 4.0 mph 9.0 mph 89 % 0.00 in 0 W/m2
02:19 43.7 °F 40.7 °F 29.64 in WNW 3.0 mph 6.0 mph 89 % 0.00 in 0 W/m2
02:24 43.5 °F 40.5 °F 29.65 in WNW 3.0 mph 5.0 mph 89 % 0.00 in 0 W/m2
02:29 43.3 °F 40.3 °F 29.65 in WNW 4.0 mph 7.0 mph 89 % 0.00 in 0 W/m2
02:39 43.0 °F 40.2 °F 29.65 in WNW 4.0 mph 7.0 mph 90 % 0.00 in 0 W/m2
02:44 43.0 °F 40.2 °F 29.65 in WNW 4.0 mph 6.0 mph 90 % 0.00 in 0 W/m2
02:49 42.8 °F 40.1 °F 29.65 in WNW 5.0 mph 11.0 mph 90 % 0.00 in 0 W/m2
02:54 42.8 °F 40.1 °F 29.65 in NW 7.0 mph 10.0 mph 90 % 0.00 in 0 W/m2
02:59 42.8 °F 40.1 °F 29.65 in WNW 6.0 mph 8.0 mph 90 % 0.00 in 0 W/m2
03:04 42.8 °F 40.1 °F 29.66 in WNW 5.0 mph 8.0 mph 90 % 0.00 in 0 W/m2
03:09 42.8 °F 40.1 °F 29.66 in WNW 2.0 mph 6.0 mph 90 % 0.00 in 0 W/m2
03:14 42.8 °F 40.1 °F 29.67 in West 3.0 mph 5.0 mph 90 % 0.00 in 0 W/m2
03:19 42.6 °F 39.6 °F 29.67 in WNW 5.0 mph 9.0 mph 89 % 0.00 in 0 W/m2
03:24 42.6 °F 39.9 °F 29.66 in WNW 6.0 mph 11.0 mph 90 % 0.00 in 0 W/m2
03:29 42.8 °F 40.1 °F 29.66 in WNW 7.0 mph 11.0 mph 90 % 0.00 in 0 W/m2
03:34 42.8 °F 39.8 °F 29.66 in WNW 8.0 mph 12.0 mph 89 % 0.00 in 0 W/m2
03:39 43.0 °F 40.0 °F 29.66 in WNW 9.0 mph 15.0 mph 89 % 0.00 in 0 W/m2
03:44 43.0 °F 40.0 °F 29.66 in WNW 5.0 mph 9.0 mph 89 % 0.00 in 0 W/m2
03:54 43.2 °F 39.8 °F 29.67 in West 4.0 mph 9.0 mph 88 % 0.00 in 0 W/m2
03:59 43.2 °F 39.8 °F 29.67 in WNW 3.0 mph 6.0 mph 88 % 0.00 in 0 W/m2
04:05 43.2 °F 39.8 °F 29.67 in WNW 4.0 mph 9.0 mph 88 % 0.00 in 0 W/m2
04:09 43.2 °F 39.8 °F 29.67 in West 4.0 mph 11.0 mph 88 % 0.00 in 0 W/m2
04:14 43.2 °F 39.8 °F 29.67 in West 5.0 mph 8.0 mph 88 % 0.00 in 0 W/m2
04:20 43.2 °F 39.8 °F 29.67 in WSW 3.0 mph 9.0 mph 88 % 0.00 in 0 W/m2
04:25 43.2 °F 39.8 °F 29.67 in WSW 1.0 mph 6.0 mph 88 % 0.00 in 0 W/m2
04:30 43.2 °F 39.8 °F 29.67 in WNW 4.0 mph 9.0 mph 88 % 0.00 in 0 W/m2
04:35 43.2 °F 39.8 °F 29.67 in WNW 5.0 mph 10.0 mph 88 % 0.00 in 0 W/m2
04:40 43.2 °F 39.8 °F 29.67 in West 5.0 mph 8.0 mph 88 % 0.00 in 0 W/m2
04:45 43.2 °F 39.8 °F 29.67 in West 6.0 mph 9.0 mph 88 % 0.00 in 0 W/m2
04:50 43.2 °F 39.8 °F 29.67 in WNW 6.0 mph 11.0 mph 88 % 0.00 in 0 W/m2
04:55 43.2 °F 39.8 °F 29.67 in West 7.0 mph 10.0 mph 88 % 0.00 in 0 W/m2
05:00 43.0 °F 39.7 °F 29.68 in West 4.0 mph 7.0 mph 88 % 0.00 in 0 W/m2
05:05 43.0 °F 39.7 °F 29.68 in WSW 1.0 mph 5.0 mph 88 % 0.00 in 0 W/m2
05:15 43.0 °F 39.7 °F 29.68 in Calm   1.0 mph 88 % 0.00 in 0 W/m2
05:20 43.0 °F 39.7 °F 29.68 in West 1.0 mph 2.0 mph 88 % 0.00 in 0 W/m2
05:25 43.0 °F 39.7 °F 29.68 in WSW 1.0 mph 4.0 mph 88 % 0.00 in 0 W/m2
05:35 43.0 °F 40.0 °F 29.68 in WNW 6.0 mph 11.0 mph 89 % 0.00 in 0 W/m2
05:40 43.2 °F 40.1 °F 29.68 in WNW 8.0 mph 12.0 mph 89 % 0.00 in 0 W/m2
05:45 43.2 °F 40.1 °F 29.68 in West 8.0 mph 12.0 mph 89 % 0.00 in 0 W/m2
05:50 43.3 °F 40.3 °F 29.68 in West 8.0 mph 11.0 mph 89 % 0.00 in 0 W/m2
05:55 43.3 °F 40.3 °F 29.69 in West 8.0 mph 14.0 mph 89 % 0.00 in 0 W/m2
06:00 43.3 °F 40.0 °F 29.69 in West 6.0 mph 9.0 mph 88 % 0.00 in 0 W/m2
06:08 43.3 °F 40.3 °F 29.69 in West 7.0 mph 13.0 mph 89 % 0.00 in 0 W/m2
06:13 43.3 °F 40.0 °F 29.69 in West 5.0 mph 8.0 mph 88 % 0.00 in 0 W/m2
06:18 43.3 °F 40.0 °F 29.69 in West 2.0 mph 6.0 mph 88 % 0.00 in 0 W/m2
06:23 43.2 °F 39.8 °F 29.69 in West 5.0 mph 8.0 mph 88 % 0.00 in 0 W/m2
06:28 43.2 °F 40.1 °F 29.69 in WSW 3.0 mph 6.0 mph 89 % 0.00 in 0 W/m2
06:33 43.2 °F 39.8 °F 29.70 in WSW 2.0 mph 6.0 mph 88 % 0.00 in 0 W/m2
06:38 43.0 °F 40.0 °F 29.70 in WSW 2.0 mph 6.0 mph 89 % 0.00 in 0 W/m2
06:48 43.0 °F 40.0 °F 29.70 in Calm   1.0 mph 89 % 0.00 in 0 W/m2
06:53 42.8 °F 39.5 °F 29.70 in Calm   2.0 mph 88 % 0.00 in 0 W/m2
06:58 42.6 °F 39.6 °F 29.70 in West 3.0 mph 7.0 mph 89 % 0.00 in 0 W/m2
07:03 42.4 °F 39.4 °F 29.70 in West 5.0 mph 7.0 mph 89 % 0.00 in 0 W/m2
07:08 42.4 °F 39.4 °F 29.70 in WSW 5.0 mph 9.0 mph 89 % 0.00 in 0 W/m2
07:18 42.4 °F 39.4 °F 29.71 in West 5.0 mph 9.0 mph 89 % 0.00 in 0 W/m2
07:28 42.6 °F 39.6 °F 29.71 in West 3.0 mph 6.0 mph 89 % 0.00 in 0 W/m2
07:33 42.6 °F 39.6 °F 29.71 in WSW 4.0 mph 8.0 mph 89 % 0.00 in 0 W/m2
07:38 42.6 °F 39.6 °F 29.71 in West 4.0 mph 9.0 mph 89 % 0.00 in 0 W/m2
07:43 42.6 °F 39.6 °F 29.71 in West 4.0 mph 8.0 mph 89 % 0.00 in 0 W/m2
07:53 42.6 °F 39.9 °F 29.72 in West 3.0 mph 6.0 mph 90 % 0.00 in 0 W/m2
07:59 42.6 °F 39.9 °F 29.72 in WSW 2.0 mph 7.0 mph 90 % 0.00 in 0 W/m2
08:09 42.4 °F 39.4 °F 29.73 in Calm   2.0 mph 89 % 0.00 in 5 W/m2
08:14 42.3 °F 39.2 °F 29.73 in WSW 3.0 mph 9.0 mph 89 % 0.00 in 9 W/m2
08:19 42.3 °F 39.5 °F 29.73 in Calm   1.0 mph 90 % 0.00 in 12 W/m2
08:24 42.3 °F 39.5 °F 29.73 in West 2.0 mph 4.0 mph 90 % 0.00 in 16 W/m2
08:29 42.1 °F 39.4 °F 29.73 in Calm   1.0 mph 90 % 0.00 in 23 W/m2
08:34 42.3 °F 39.5 °F 29.73 in West 3.0 mph 9.0 mph 90 % 0.00 in 32 W/m2
08:44 42.6 °F 40.2 °F 29.73 in WNW 8.0 mph 12.0 mph 91 % 0.00 in 47 W/m2
08:54 43.3 °F 40.6 °F 29.74 in WNW 7.0 mph 12.0 mph 90 % 0.00 in 35 W/m2
08:59 43.3 °F 40.6 °F 29.74 in WNW 8.0 mph 12.0 mph 90 % 0.00 in 44 W/m2
09:04 43.5 °F 40.8 °F 29.74 in West 6.0 mph 10.0 mph 90 % 0.00 in 56 W/m2
09:09 43.7 °F 41.0 °F 29.75 in West 9.0 mph 15.0 mph 90 % 0.00 in 37 W/m2
09:14 43.9 °F 40.8 °F 29.75 in West 7.0 mph 13.0 mph 89 % 0.00 in 32 W/m2
09:19 43.9 °F 40.8 °F 29.75 in WNW 8.0 mph 12.0 mph 89 % 0.00 in 35 W/m2
09:24 43.9 °F 40.8 °F 29.75 in WNW 6.0 mph 10.0 mph 89 % 0.00 in 49 W/m2
09:29 43.9 °F 40.8 °F 29.76 in WNW 8.0 mph 11.0 mph 89 % 0.00 in 98 W/m2
09:34 44.1 °F 41.0 °F 29.76 in West 5.0 mph 10.0 mph 89 % 0.00 in 151 W/m2
09:39 44.4 °F 41.4 °F 29.76 in West 8.0 mph 14.0 mph 89 % 0.00 in 156 W/m2
09:44 44.8 °F 41.7 °F 29.76 in WNW 8.0 mph 14.0 mph 89 % 0.00 in 132 W/m2
09:49 45.0 °F 41.6 °F 29.75 in WNW 13.0 mph 21.0 mph 88 % 0.00 in 156 W/m2
09:54 45.1 °F 41.5 °F 29.75 in WNW 12.0 mph 20.0 mph 87 % 0.00 in 134 W/m2
09:59 45.1 °F 41.5 °F 29.75 in WNW 13.0 mph 23.0 mph 87 % 0.00 in 130 W/m2
10:04 45.1 °F 41.5 °F 29.75 in West 13.0 mph 23.0 mph 87 % 0.00 in 114 W/m2
10:09 45.1 °F 41.5 °F 29.75 in WNW 10.0 mph 19.0 mph 87 % 0.00 in 118 W/m2
10:14 45.0 °F 41.3 °F 29.75 in WNW 11.0 mph 19.0 mph 87 % 0.00 in 125 W/m2
10:19 45.0 °F 41.3 °F 29.76 in WNW 13.0 mph 23.0 mph 87 % 0.00 in 113 W/m2
10:24 45.0 °F 41.3 °F 29.76 in WNW 12.0 mph 20.0 mph 87 % 0.00 in 130 W/m2
10:29 45.0 °F 41.3 °F 29.77 in WNW 13.0 mph 19.0 mph 87 % 0.00 in 146 W/m2
10:34 45.0 °F 41.3 °F 29.77 in WNW 15.0 mph 23.0 mph 87 % 0.00 in 132 W/m2
10:39 45.1 °F 41.5 °F 29.77 in West 17.0 mph 26.0 mph 87 % 0.00 in 111 W/m2
10:44 45.1 °F 41.5 °F 29.77 in WNW 17.0 mph 26.0 mph 87 % 0.00 in 104 W/m2
10:49 45.1 °F 41.5 °F 29.76 in WNW 15.0 mph 23.0 mph 87 % 0.00 in 120 W/m2
10:55 45.1 °F 41.5 °F 29.77 in WNW 14.0 mph 22.0 mph 87 % 0.00 in 171 W/m2
11:00 45.3 °F 41.7 °F 29.77 in WNW 13.0 mph 20.0 mph 87 % 0.00 in 142 W/m2
11:05 45.3 °F 41.7 °F 29.77 in WNW 13.0 mph 23.0 mph 87 % 0.00 in 111 W/m2
11:10 45.3 °F 41.4 °F 29.77 in WNW 17.0 mph 26.0 mph 86 % 0.00 in 98 W/m2
11:15 45.3 °F 41.4 °F 29.77 in West 17.0 mph 26.0 mph 86 % 0.00 in 167 W/m2
11:20 45.5 °F 41.6 °F 29.77 in WNW 18.0 mph 26.0 mph 86 % 0.00 in 288 W/m2
11:25 46.0 °F 42.1 °F 29.77 in West 17.0 mph 29.0 mph 86 % 0.00 in 353 W/m2
11:30 46.2 °F 42.0 °F 29.77 in WNW 19.0 mph 29.0 mph 85 % 0.00 in 239 W/m2
11:35 46.6 °F 42.0 °F 29.77 in West 23.0 mph 33.0 mph 84 % 0.00 in 251 W/m2
11:40 46.8 °F 42.2 °F 29.78 in West 19.0 mph 30.0 mph 84 % 0.00 in 225 W/m2
11:45 46.8 °F 42.2 °F 29.77 in West 17.0 mph 26.0 mph 84 % 0.00 in 160 W/m2
11:50 46.8 °F 42.2 °F 29.77 in WNW 18.0 mph 26.0 mph 84 % 0.00 in 148 W/m2
11:55 46.6 °F 42.0 °F 29.78 in WNW 19.0 mph 26.0 mph 84 % 0.00 in 172 W/m2
12:00 46.6 °F 42.0 °F 29.78 in West 20.0 mph 28.0 mph 84 % 0.00 in 339 W/m2
12:05 46.6 °F 42.0 °F 29.78 in WNW 18.0 mph 25.0 mph 84 % 0.00 in 134 W/m2
12:10 46.4 °F 41.8 °F 29.78 in West 16.0 mph 26.0 mph 84 % 0.00 in 123 W/m2
12:15 46.2 °F 42.0 °F 29.80 in West 16.0 mph 23.0 mph 85 % 0.00 in 105 W/m2
12:20 46.2 °F 42.0 °F 29.80 in West 16.0 mph 23.0 mph 85 % 0.00 in 81 W/m2
12:25 46.0 °F 41.8 °F 29.81 in WNW 14.0 mph 25.0 mph 85 % 0.00 in 70 W/m2
12:35 46.0 °F 42.1 °F 29.81 in WNW 9.0 mph 16.0 mph 86 % 0.00 in 104 W/m2
12:40 46.0 °F 42.1 °F 29.82 in West 10.0 mph 18.0 mph 86 % 0.00 in 114 W/m2
12:45 46.0 °F 42.1 °F 29.82 in West 11.0 mph 18.0 mph 86 % 0.00 in 97 W/m2
12:50 46.2 °F 42.6 °F 29.83 in West 11.0 mph 22.0 mph 87 % 0.00 in 135 W/m2
12:55 46.2 °F 42.3 °F 29.83 in West 13.0 mph 19.0 mph 86 % 0.00 in 137 W/m2
13:00 46.2 °F 42.3 °F 29.83 in West 13.0 mph 19.0 mph 86 % 0.00 in 118 W/m2
13:05 46.2 °F 42.3 °F 29.84 in WNW 12.0 mph 18.0 mph 86 % 0.00 in 102 W/m2
13:11 46.2 °F 42.6 °F 29.84 in West 10.0 mph 15.0 mph 87 % 0.00 in 118 W/m2
13:16 46.2 °F 42.6 °F 29.84 in West 9.0 mph 14.0 mph 87 % 0.00 in 109 W/m2
13:21 46.2 °F 42.6 °F 29.85 in West 10.0 mph 15.0 mph 87 % 0.00 in 76 W/m2
13:31 46.6 °F 43.2 °F 29.85 in WNW 8.0 mph 13.0 mph 88 % 0.00 in 385 W/m2
13:36 46.9 °F 43.3 °F 29.85 in WNW 11.0 mph 20.0 mph 87 % 0.00 in 271 W/m2
13:41 47.1 °F 43.4 °F 29.85 in WNW 12.0 mph 20.0 mph 87 % 0.00 in 155 W/m2
13:46 47.1 °F 43.1 °F 29.85 in WNW 9.0 mph 16.0 mph 86 % 0.00 in 306 W/m2
13:51 47.5 °F 43.5 °F 29.85 in WNW 9.0 mph 15.0 mph 86 % 0.00 in 239 W/m2
14:01 47.7 °F 43.4 °F 29.85 in West 10.0 mph 16.0 mph 85 % 0.00 in 251 W/m2
14:06 47.8 °F 43.5 °F 29.86 in WNW 11.0 mph 14.0 mph 85 % 0.00 in 371 W/m2
14:11 47.8 °F 43.2 °F 29.86 in WNW 10.0 mph 16.0 mph 84 % 0.00 in 135 W/m2
14:16 47.8 °F 43.2 °F 29.86 in West 10.0 mph 15.0 mph 84 % 0.00 in 123 W/m2
14:21 48.0 °F 43.4 °F 29.86 in West 15.0 mph 20.0 mph 84 % 0.00 in 339 W/m2
14:31 48.6 °F 43.3 °F 29.86 in WNW 13.0 mph 20.0 mph 82 % 0.00 in 148 W/m2
14:36 48.6 °F 43.3 °F 29.87 in West 15.0 mph 20.0 mph 82 % 0.00 in 79 W/m2
14:41 48.0 °F 42.8 °F 29.87 in West 13.0 mph 20.0 mph 82 % 0.00 in 47 W/m2
14:46 47.8 °F 42.9 °F 29.87 in West 11.0 mph 20.0 mph 83 % 0.00 in 200 W/m2
14:51 47.8 °F 42.9 °F 29.87 in West 11.0 mph 18.0 mph 83 % 0.00 in 148 W/m2
14:56 47.7 °F 42.4 °F 29.87 in West 15.0 mph 23.0 mph 82 % 0.00 in 79 W/m2
15:01 47.5 °F 42.3 °F 29.87 in WNW 12.0 mph 20.0 mph 82 % 0.00 in 81 W/m2
15:06 47.3 °F 42.1 °F 29.88 in West 13.0 mph 23.0 mph 82 % 0.00 in 81 W/m2
15:11 47.1 °F 41.9 °F 29.88 in West 12.0 mph 20.0 mph 82 % 0.00 in 44 W/m2
15:16 46.9 °F 42.0 °F 29.88 in West 12.0 mph 16.0 mph 83 % 0.00 in 54 W/m2
15:21 46.9 °F 42.0 °F 29.88 in West 12.0 mph 18.0 mph 83 % 0.00 in 65 W/m2
15:26 46.8 °F 42.2 °F 29.89 in West 9.0 mph 15.0 mph 84 % 0.00 in 53 W/m2
15:31 46.8 °F 42.2 °F 29.89 in West 10.0 mph 16.0 mph 84 % 0.00 in 32 W/m2
15:36 46.6 °F 42.3 °F 29.89 in West 9.0 mph 15.0 mph 85 % 0.00 in 32 W/m2
15:41 46.4 °F 42.1 °F 29.89 in West 9.0 mph 15.0 mph 85 % 0.00 in 39 W/m2
15:46 46.2 °F 42.0 °F 29.89 in West 11.0 mph 16.0 mph 85 % 0.00 in 42 W/m2
15:51 46.0 °F 41.8 °F 29.89 in West 9.0 mph 15.0 mph 85 % 0.00 in 33 W/m2
15:56 45.9 °F 41.6 °F 29.89 in West 13.0 mph 21.0 mph 85 % 0.00 in 21 W/m2
16:01 45.7 °F 41.4 °F 29.90 in West 14.0 mph 20.0 mph 85 % 0.00 in 14 W/m2
16:06 45.7 °F 41.4 °F 29.90 in West 13.0 mph 23.0 mph 85 % 0.00 in 11 W/m2
16:12 45.7 °F 41.1 °F 29.90 in West 12.0 mph 19.0 mph 84 % 0.00 in 7 W/m2
16:17 45.7 °F 41.1 °F 29.90 in West 10.0 mph 14.0 mph 84 % 0.00 in 5 W/m2
16:22 45.7 °F 41.1 °F 29.91 in West 9.0 mph 14.0 mph 84 % 0.00 in 5 W/m2
16:27 45.7 °F 41.1 °F 29.91 in West 10.0 mph 14.0 mph 84 % 0.00 in 0 W/m2
16:32 45.7 °F 41.1 °F 29.91 in West 7.0 mph 12.0 mph 84 % 0.00 in 0 W/m2
16:37 45.7 °F 41.1 °F 29.91 in WSW 6.0 mph 10.0 mph 84 % 0.00 in 0 W/m2
16:42 45.5 °F 40.9 °F 29.91 in WSW 4.0 mph 9.0 mph 84 % 0.00 in 0 W/m2
16:47 45.3 °F 41.1 °F 29.91 in WSW 8.0 mph 13.0 mph 85 % 0.00 in 0 W/m2
16:52 45.3 °F 40.8 °F 29.91 in WSW 7.0 mph 10.0 mph 84 % 0.00 in 0 W/m2
16:57 45.3 °F 40.8 °F 29.91 in WSW 7.0 mph 13.0 mph 84 % 0.00 in 0 W/m2
17:02 45.1 °F 40.6 °F 29.92 in WSW 7.0 mph 12.0 mph 84 % 0.00 in 0 W/m2
17:07 45.1 °F 40.6 °F 29.92 in WSW 6.0 mph 10.0 mph 84 % 0.00 in 0 W/m2
17:12 45.3 °F 40.8 °F 29.92 in WSW 9.0 mph 12.0 mph 84 % 0.00 in 0 W/m2
17:17 45.3 °F 40.8 °F 29.92 in WSW 7.0 mph 11.0 mph 84 % 0.00 in 0 W/m2
17:22 45.3 °F 40.8 °F 29.93 in West 9.0 mph 16.0 mph 84 % 0.00 in 0 W/m2
17:27 45.3 °F 40.8 °F 29.93 in WSW 8.0 mph 12.0 mph 84 % 0.00 in 0 W/m2
17:32 45.1 °F 40.6 °F 29.93 in WSW 8.0 mph 13.0 mph 84 % 0.00 in 0 W/m2
17:37 45.1 °F 40.6 °F 29.93 in WSW 6.0 mph 11.0 mph 84 % 0.00 in 0 W/m2
17:42 45.1 °F 40.9 °F 29.94 in WSW 7.0 mph 12.0 mph 85 % 0.00 in 0 W/m2
17:47 45.0 °F 40.7 °F 29.94 in WSW 10.0 mph 14.0 mph 85 % 0.00 in 0 W/m2
17:52 45.0 °F 40.7 °F 29.94 in WSW 10.0 mph 15.0 mph 85 % 0.00 in 0 W/m2
17:57 45.0 °F 40.7 °F 29.95 in WSW 8.0 mph 15.0 mph 85 % 0.00 in 0 W/m2
18:02 45.0 °F 40.7 °F 29.95 in WSW 9.0 mph 14.0 mph 85 % 0.00 in 0 W/m2
18:07 45.0 °F 40.4 °F 29.94 in WSW 11.0 mph 20.0 mph 84 % 0.00 in 0 W/m2
18:12 45.0 °F 40.4 °F 29.94 in WSW 11.0 mph 19.0 mph 84 % 0.00 in 0 W/m2
18:17 45.0 °F 40.4 °F 29.94 in WSW 11.0 mph 15.0 mph 84 % 0.00 in 0 W/m2
18:22 45.0 °F 40.4 °F 29.94 in WSW 12.0 mph 18.0 mph 84 % 0.00 in 0 W/m2
18:27 44.8 °F 40.2 °F 29.94 in West 9.0 mph 14.0 mph 84 % 0.00 in 0 W/m2
18:32 44.6 °F 40.1 °F 29.95 in WSW 7.0 mph 13.0 mph 84 % 0.00 in 0 W/m2
18:37 44.6 °F 40.1 °F 29.95 in WSW 9.0 mph 15.0 mph 84 % 0.00 in 0 W/m2
18:42 44.6 °F 40.1 °F 29.95 in WSW 9.0 mph 13.0 mph 84 % 0.00 in 0 W/m2
18:48 44.6 °F 40.1 °F 29.95 in West 6.0 mph 10.0 mph 84 % 0.00 in 0 W/m2
18:53 44.6 °F 40.1 °F 29.95 in WSW 7.0 mph 13.0 mph 84 % 0.00 in 0 W/m2
18:58 44.4 °F 39.6 °F 29.95 in WSW 8.0 mph 12.0 mph 83 % 0.00 in 0 W/m2
19:03 44.4 °F 39.6 °F 29.95 in WSW 7.0 mph 11.0 mph 83 % 0.00 in 0 W/m2
19:08 44.2 °F 39.4 °F 29.95 in WSW 8.0 mph 13.0 mph 83 % 0.00 in 0 W/m2
19:13 44.2 °F 39.4 °F 29.95 in West 9.0 mph 14.0 mph 83 % 0.00 in 0 W/m2
19:18 44.1 °F 39.2 °F 29.95 in WSW 9.0 mph 14.0 mph 83 % 0.00 in 0 W/m2
19:23 44.1 °F 39.2 °F 29.95 in WSW 11.0 mph 20.0 mph 83 % 0.00 in 0 W/m2
19:28 44.1 °F 39.2 °F 29.95 in West 12.0 mph 20.0 mph 83 % 0.00 in 0 W/m2
19:33 43.9 °F 39.1 °F 29.95 in WSW 10.0 mph 15.0 mph 83 % 0.00 in 0 W/m2
19:38 43.9 °F 39.1 °F 29.95 in West 12.0 mph 18.0 mph 83 % 0.00 in 0 W/m2
19:43 43.9 °F 39.1 °F 29.94 in West 11.0 mph 18.0 mph 83 % 0.00 in 0 W/m2
19:48 43.9 °F 39.1 °F 29.95 in West 12.0 mph 18.0 mph 83 % 0.00 in 0 W/m2
19:53 43.7 °F 38.9 °F 29.95 in West 10.0 mph 15.0 mph 83 % 0.00 in 0 W/m2
19:58 43.7 °F 38.9 °F 29.95 in West 11.0 mph 19.0 mph 83 % 0.00 in 0 W/m2
20:03 43.5 °F 38.7 °F 29.95 in West 9.0 mph 14.0 mph 83 % 0.00 in 0 W/m2
20:08 43.5 °F 38.7 °F 29.94 in West 9.0 mph 13.0 mph 83 % 0.00 in 0 W/m2
20:13 43.7 °F 38.9 °F 29.94 in West 11.0 mph 19.0 mph 83 % 0.00 in 0 W/m2
20:18 43.7 °F 38.6 °F 29.94 in West 9.0 mph 14.0 mph 82 % 0.00 in 0 W/m2
20:23 43.7 °F 38.9 °F 29.95 in West 11.0 mph 21.0 mph 83 % 0.00 in 0 W/m2
20:28 43.9 °F 39.1 °F 29.94 in West 11.0 mph 16.0 mph 83 % 0.00 in 0 W/m2
20:33 43.9 °F 39.1 °F 29.94 in West 11.0 mph 19.0 mph 83 % 0.00 in 0 W/m2
20:38 43.7 °F 38.9 °F 29.94 in West 10.0 mph 18.0 mph 83 % 0.00 in 0 W/m2
20:43 43.7 °F 39.2 °F 29.93 in West 11.0 mph 16.0 mph 84 % 0.00 in 0 W/m2
20:48 43.7 °F 39.2 °F 29.94 in WSW 10.0 mph 14.0 mph 84 % 0.00 in 0 W/m2
20:53 43.9 °F 39.4 °F 29.94 in West 10.0 mph 16.0 mph 84 % 0.00 in 0 W/m2
20:58 43.9 °F 39.4 °F 29.94 in West 9.0 mph 14.0 mph 84 % 0.00 in 0 W/m2
21:04 43.9 °F 39.4 °F 29.94 in West 10.0 mph 16.0 mph 84 % 0.00 in 0 W/m2
21:09 43.9 °F 39.1 °F 29.94 in West 10.0 mph 15.0 mph 83 % 0.00 in 0 W/m2
21:14 43.9 °F 39.1 °F 29.93 in West 7.0 mph 13.0 mph 83 % 0.00 in 0 W/m2
21:19 43.9 °F 39.1 °F 29.93 in West 9.0 mph 16.0 mph 83 % 0.00 in 0 W/m2
21:24 43.9 °F 39.1 °F 29.94 in West 9.0 mph 13.0 mph 83 % 0.00 in 0 W/m2
21:29 43.9 °F 39.1 °F 29.94 in West 12.0 mph 20.0 mph 83 % 0.00 in 0 W/m2
21:34 44.1 °F 39.2 °F 29.94 in West 7.0 mph 11.0 mph 83 % 0.00 in 0 W/m2
21:39 44.1 °F 39.2 °F 29.94 in West 9.0 mph 11.0 mph 83 % 0.00 in 0 W/m2
21:44 44.1 °F 39.2 °F 29.94 in West 3.0 mph 7.0 mph 83 % 0.00 in 0 W/m2
21:49 44.1 °F 39.2 °F 29.94 in West 6.0 mph 11.0 mph 83 % 0.00 in 0 W/m2
21:54 44.1 °F 39.2 °F 29.95 in WSW 3.0 mph 7.0 mph 83 % 0.00 in 0 W/m2
21:59 44.1 °F 39.2 °F 29.95 in SW 1.0 mph 4.0 mph 83 % 0.00 in 0 W/m2
22:04 44.1 °F 39.2 °F 29.95 in SSW 4.0 mph 7.0 mph 83 % 0.00 in 0 W/m2
22:09 44.2 °F 39.4 °F 29.95 in Calm   4.0 mph 83 % 0.00 in 0 W/m2
22:14 44.2 °F 39.4 °F 29.95 in SW 3.0 mph 6.0 mph 83 % 0.00 in 0 W/m2
22:19 44.2 °F 39.1 °F 29.94 in Calm     82 % 0.00 in 0 W/m2
22:24 44.2 °F 39.4 °F 29.94 in SW 4.0 mph 8.0 mph 83 % 0.00 in 0 W/m2
22:29 44.2 °F 39.1 °F 29.94 in Calm   2.0 mph 82 % 0.00 in 0 W/m2
22:34 44.1 °F 38.9 °F 29.93 in ESE 1.0 mph 5.0 mph 82 % 0.00 in 0 W/m2
22:39 44.1 °F 38.9 °F 29.94 in West 3.0 mph 7.0 mph 82 % 0.00 in 0 W/m2
22:44 44.2 °F 38.8 °F 29.93 in WSW 6.0 mph 11.0 mph 81 % 0.00 in 0 W/m2
22:49 44.4 °F 38.3 °F 29.93 in WSW 5.0 mph 11.0 mph 79 % 0.00 in 0 W/m2
22:54 44.8 °F 38.3 °F 29.93 in WSW 5.0 mph 9.0 mph 78 % 0.00 in 0 W/m2
22:59 45.0 °F 38.2 °F 29.93 in West 12.0 mph 20.0 mph 77 % 0.00 in 0 W/m2
23:04 45.3 °F 38.2 °F 29.93 in West 9.0 mph 13.0 mph 76 % 0.00 in 0 W/m2
23:09 45.5 °F 38.0 °F 29.93 in West 7.0 mph 10.0 mph 75 % 0.00 in 0 W/m2
23:14 45.5 °F 38.0 °F 29.93 in West 8.0 mph 13.0 mph 75 % 0.00 in 0 W/m2
23:19 45.5 °F 38.0 °F 29.93 in West 8.0 mph 15.0 mph 75 % 0.00 in 0 W/m2
23:24 45.7 °F 38.2 °F 29.94 in WNW 4.0 mph 9.0 mph 75 % 0.00 in 0 W/m2
23:29 45.5 °F 38.0 °F 29.94 in ESE 2.0 mph 5.0 mph 75 % 0.00 in 0 W/m2
23:35 45.1 °F 37.7 °F 29.93 in South 1.0 mph 2.0 mph 75 % 0.00 in 0 W/m2
23:40 45.0 °F 37.8 °F 29.94 in SW 3.0 mph 9.0 mph 76 % 0.00 in 0 W/m2
23:45 45.0 °F 37.8 °F 29.94 in East 3.0 mph 6.0 mph 76 % 0.00 in 0 W/m2
23:50 44.6 °F 37.5 °F 29.94 in ENE 3.0 mph 5.0 mph 76 % 0.00 in 0 W/m2
23:55 44.4 °F 37.7 °F 29.93 in ENE 5.0 mph 7.0 mph 77 % 0.00 in 0 W/m2
Delerius-Weather
Compliments of Weather Underground - 2.25 mb

Data updates at regular intervals.